Time;durP1;ratioP1;P1;durP2;ratioP2;P2;SDS_P1;SDS_P2;PMS_P1;PMS_P2;Temp;Humidity;BMP_temperature;BMP_pressure;BME280_temperature;BME280_humidity;BME280_pressure;Samples;Min_cycle;Max_cycle;Signal;HPM_P1;HPM_P2
2022/04/19 00:23:13;;;;;;;;;;;;;;;;;;;;;
2022/04/19 00:29:25;;;;;;;;;;;;;;;;;;;;;
2022/04/19 00:32:42;;;;;;;;;;;;;;;;;;;;;
2022/04/19 00:35:23;;;;;;;;;;;;;;;;;;;;;
2022/04/19 00:38:39;;;;;;;13.52;5.75;;;;;;;;;;6020588;23;20036;-96
2022/04/19 00:41:48;;;;;;;13.55;5.85;;;;;;;;;;5969602;24;20043;-96
2022/04/19 00:47:46;;;;;;;9.63;5.53;;;;;;;;;;5963497;24;20013;-96
2022/04/19 00:50:59;;;;;;;;;;;;;;;;;;;;;
2022/04/19 00:57:25;;;;;;;;;;;;;;;;;;;;;
2022/04/19 01:03:13;;;;;;;10.60;5.28;;;;;;;;;;6019861;23;20043;-96
2022/04/19 01:06:02;;;;;;;8.07;5.40;;;;;;;;;;6018949;23;20008;-95
2022/04/19 01:18:06;;;;;;;9.85;5.40;;;;;;;;;;5939375;24;20415;-96
2022/04/19 01:20:58;;;;;;;11.77;5.35;;;;;;;;;;5973213;23;20113;-94
2022/04/19 01:33:04;;;;;;;8.80;5.07;;;;;;;;;;6028118;23;20086;-95
2022/04/19 01:44:49;;;;;;;;;;;;;;;;;;;;;
2022/04/19 01:47:50;;;;;;;;;;;;;;;;;;;;;
2022/04/19 01:57:08;;;;;;;;;;;;;;;;;;;;;
2022/04/19 02:02:58;;;;;;;;;;;;;;;;;;;;;
2022/04/19 02:05:56;;;;;;;;;;;;;;;;;;;;;
2022/04/19 02:09:16;;;;;;;;;;;;;;;;;;;;;
2022/04/19 02:12:19;;;;;;;;;;;;;;;;;;;;;
2022/04/19 02:18:14;;;;;;;9.27;4.72;;;;;;;;;;6136622;23;19916;-94
2022/04/19 02:27:13;;;;;;;7.60;4.30;;;;;;;;;;6224296;23;20421;-93
2022/04/19 02:33:03;;;;;;;7.78;4.22;;;;;;;;;;6193361;23;20015;-95
2022/04/19 02:35:41;;;;;;;7.90;4.90;;;;;;;;;;6190863;23;20009;-96
2022/04/19 02:39:13;;;;;;;;;;;;;;;;;;;;;
2022/04/19 02:41:43;;;;;;;;;;;;;;;;;;;;;
2022/04/19 02:44:29;;;;;;;8.32;4.28;;;;;;;;;;6284753;22;20016;-96
2022/04/19 02:53:32;;;;;;;8.68;4.72;;;;;;;;;;6267024;22;20004;-95
2022/04/19 03:05:37;;;;;;;;;;;;;;;;;;;;;
2022/04/19 03:08:40;;;;;;;7.95;3.85;;;;;;;;;;6288952;22;20019;-96
2022/04/19 03:11:40;;;;;;;7.88;4.47;;;;;;;;;;6123701;23;20013;-94
2022/04/19 03:20:51;;;;;;;;;;;;;;;;;;;;;
2022/04/19 03:29:35;;;;;;;7.47;4.13;;;;;;;;;;6205502;22;20016;-96
2022/04/19 03:32:34;;;;;;;6.57;3.85;;;;;;;;;;6291428;22;20003;-94
2022/04/19 03:35:41;;;;;;;;;;;;;;;;;;;;;
2022/04/19 03:38:21;;;;;;;9.30;4.57;;;;;;;;;;6319557;22;20041;-96
2022/04/19 03:41:06;;;;;;;13.23;4.30;;;;;;;;;;6290462;22;20022;-96
2022/04/19 03:44:00;;;;;;;7.25;3.92;;;;;;;;;;6289919;22;20497;-94
2022/04/19 03:52:34;;;;;;;9.13;4.15;;;;;;;;;;6260521;23;20476;-94
2022/04/19 03:55:15;;;;;;;8.52;4.63;;;;;;;;;;6231292;23;20000;-93
2022/04/19 03:57:47;;;;;;;6.93;3.83;;;;;;;;;;6231581;23;20012;-96
2022/04/19 04:00:23;;;;;;;8.35;4.55;;;;;;;;;;6230773;23;20015;-96
2022/04/19 04:06:07;;;;;;;10.48;4.65;;;;;;;;;;6193148;23;20072;-95
2022/04/19 04:09:15;;;;;;;;;;;;;;;;;;;;;
2022/04/19 04:12:12;;;;;;;;;;;;;;;;;;;;;
2022/04/19 04:15:00;;;;;;;6.47;4.40;;;;;;;;;;6312686;22;20027;-96
2022/04/19 04:17:50;;;;;;;8.63;3.78;;;;;;;;;;6272968;22;20012;-95
2022/04/19 04:20:55;;;;;;;;;;;;;;;;;;;;;
2022/04/19 04:23:38;;;;;;;;;;;;;;;;;;;;;
2022/04/19 04:29:16;;;;;;;6.82;4.10;;;;;;;;;;6167415;23;20011;-95
2022/04/19 04:32:08;;;;;;;9.45;4.60;;;;;;;;;;6153788;22;20100;-96
2022/04/19 04:40:35;;;;;;;7.00;3.90;;;;;;;;;;6288696;22;20072;-96
2022/04/19 04:52:36;;;;;;;6.65;4.20;;;;;;;;;;6313995;22;20094;-94
2022/04/19 05:01:36;;;;;;;6.82;4.25;;;;;;;;;;6218114;23;20080;-95
2022/04/19 05:04:36;;;;;;;;;;;;;;;;;;;;;
2022/04/19 05:07:32;;;;;;;9.90;4.32;;;;;;;;;;6161638;23;20521;-96
2022/04/19 05:10:07;;;;;;;7.78;4.45;;;;;;;;;;6130974;23;20188;-96
2022/04/19 05:16:11;;;;;;;8.70;4.60;;;;;;;;;;6174208;23;20020;-96
2022/04/19 05:19:06;;;;;;;8.00;4.85;;;;;;;;;;6162650;23;20454;-94
2022/04/19 05:22:02;;;;;;;8.10;4.53;;;;;;;;;;6161944;23;20005;-96
2022/04/19 05:24:31;;;;;;;7.82;4.28;;;;;;;;;;6149768;23;19996;-96
2022/04/19 05:36:03;;;;;;;8.63;4.40;;;;;;;;;;6289996;22;20445;-96
2022/04/19 05:44:45;;;;;;;7.65;4.88;;;;;;;;;;6306634;22;20452;-96
2022/04/19 05:50:51;;;;;;;7.90;4.28;;;;;;;;;;6313265;22;20037;-96
2022/04/19 05:56:42;;;;;;;;;;;;;;;;;;;;;
2022/04/19 05:59:11;;;;;;;7.65;4.15;;;;;;;;;;6259596;23;20028;-94
2022/04/19 06:05:17;;;;;;;6.70;4.28;;;;;;;;;;6254601;23;20073;-95
2022/04/19 06:08:16;;;;;;;;;;;;;;;;;;;;;
2022/04/19 06:11:17;;;;;;;6.20;4.20;;;;;;;;;;6175291;23;20010;-96
2022/04/19 06:19:52;;;;;;;6.95;4.40;;;;;;;;;;6309914;22;20051;-94
2022/04/19 06:22:49;;;;;;;;;;;;;;;;;;;;;
2022/04/19 07:47:39;;;;;;;5.35;3.15;;;;;;;;;;6259068;22;19906;-96
2022/04/19 07:50:31;;;;;;;;;;;;;;;;;;;;;
2022/04/19 08:14:47;;;;;;;5.65;2.60;;;;;;;;;;6171298;23;20028;-95
2022/04/19 09:13:09;;;;;;;6.22;3.33;;;;;;;;;;6289529;22;20070;-96
2022/04/19 09:15:59;;;;;;;4.80;2.90;;;;;;;;;;6255963;22;20012;-96
2022/04/19 09:45:29;;;;;;;5.20;2.63;;;;;;;;;;6167669;22;20020;-95
2022/04/19 09:59:26;;;;;;;4.65;3.08;;;;;;;;;;6304387;22;20027;-94
2022/04/19 10:10:53;;;;;;;;;;;;;;;;;;;;;
2022/04/19 10:16:29;;;;;;;4.65;3.05;;;;;;;;;;6169003;23;20010;-95
2022/04/19 10:19:08;;;;;;;6.43;3.47;;;;;;;;;;6167489;23;20056;-96
2022/04/19 10:21:47;;;;;;;6.60;3.47;;;;;;;;;;6144732;23;20098;-95
2022/04/19 10:28:09;;;;;;;5.63;3.42;;;;;;;;;;6275938;22;20038;-95
2022/04/19 10:53:25;;;;;;;6.43;3.53;;;;;;;;;;6318412;22;20038;-96
2022/04/19 11:05:33;;;;;;;8.27;3.47;;;;;;;;;;6228803;23;20005;-94
2022/04/19 11:33:08;;;;;;;;;;;;;;;;;;;;;
2022/04/19 11:36:02;;;;;;;11.60;4.80;;;;;;;;;;6109775;23;20043;-95
2022/04/19 12:02:09;;;;;;;4.80;3.03;;;;;;;;;;6277379;22;20520;-95
2022/04/19 12:05:06;;;;;;;5.13;3.53;;;;;;;;;;6261905;22;20453;-95
2022/04/19 13:03:26;;;;;;;8.52;4.57;;;;;;;;;;6317338;22;20001;-94
2022/04/19 13:14:44;;;;;;;8.18;4.68;;;;;;;;;;6288299;22;20014;-93
2022/04/19 13:25:28;;;;;;;6.05;3.90;;;;;;;;;;6284021;22;20303;-89
2022/04/19 13:28:25;;;;;;;7.38;4.53;;;;;;;;;;6253571;22;20000;-96
2022/04/19 13:30:52;;;;;;;9.68;5.03;;;;;;;;;;6252785;22;20073;-95
2022/04/19 13:33:32;;;;;;;7.85;5.25;;;;;;;;;;6248233;22;20004;-94
2022/04/19 13:36:01;;;;;;;8.00;5.18;;;;;;;;;;6255157;22;20073;-94
2022/04/19 13:38:37;;;;;;;7.93;4.85;;;;;;;;;;6252820;22;20015;-93
2022/04/19 13:41:41;;;;;;;;;;;;;;;;;;;;;
2022/04/19 13:44:14;;;;;;;13.68;6.10;;;;;;;;;;6280877;22;20092;-96
2022/04/19 13:46:59;;;;;;;11.25;6.47;;;;;;;;;;6255863;22;20368;-96
2022/04/19 13:52:18;;;;;;;8.68;5.05;;;;;;;;;;6159401;23;20002;-89
2022/04/19 13:54:44;;;;;;;6.47;4.72;;;;;;;;;;6240193;22;20007;-87
2022/04/19 13:57:10;;;;;;;10.65;5.13;;;;;;;;;;6251578;22;20425;-88
2022/04/19 13:59:36;;;;;;;7.93;4.47;;;;;;;;;;6251185;22;20011;-85
2022/04/19 14:02:28;;;;;;;13.82;6.75;;;;;;;;;;6255248;22;20027;-94
2022/04/19 14:08:22;;;;;;;17.97;7.83;;;;;;;;;;6282883;22;20007;-94
2022/04/19 14:10:51;;;;;;;8.63;5.63;;;;;;;;;;6286290;22;20231;-95
2022/04/19 14:16:32;;;;;;;9.88;5.88;;;;;;;;;;6250411;22;20012;-92
2022/04/19 14:19:11;;;;;;;7.65;5.15;;;;;;;;;;6228046;23;20006;-93
2022/04/19 14:21:43;;;;;;;10.32;5.05;;;;;;;;;;6229742;23;20387;-91
2022/04/19 14:24:39;;;;;;;15.15;5.40;;;;;;;;;;6231556;23;20011;-92
2022/04/19 14:27:26;;;;;;;13.05;5.65;;;;;;;;;;6104180;23;20093;-93
2022/04/19 14:39:15;;;;;;;32.88;6.95;;;;;;;;;;6255042;23;20022;-93
2022/04/19 14:41:51;;;;;;;7.53;5.30;;;;;;;;;;6253145;23;20016;-90
2022/04/19 14:44:27;;;;;;;10.95;5.25;;;;;;;;;;6228480;23;20008;-91
2022/04/19 14:47:14;;;;;;;8.85;5.05;;;;;;;;;;6256959;23;20039;-90
2022/04/19 14:49:46;;;;;;;8.63;5.22;;;;;;;;;;6226046;23;20508;-91
2022/04/19 14:52:47;;;;;;;8.30;4.82;;;;;;;;;;6228774;23;20082;-92
2022/04/19 15:04:33;;;;;;;11.60;5.57;;;;;;;;;;6254193;23;20014;-93
2022/04/19 15:10:14;;;;;;;13.60;5.65;;;;;;;;;;6167104;23;20001;-94
2022/04/19 15:15:12;;;;;;;7.03;5.05;;;;;;;;;;6280214;22;20027;-92
2022/04/19 15:17:41;;;;;;;10.70;5.35;;;;;;;;;;6274916;22;20027;-91
2022/04/19 15:23:15;;;;;;;8.52;5.03;;;;;;;;;;6290684;22;20443;-93
2022/04/19 15:28:45;;;;;;;8.85;5.65;;;;;;;;;;6273648;22;20034;-92
2022/04/19 15:31:39;;;;;;;7.65;5.20;;;;;;;;;;6259933;22;20026;-92
2022/04/19 15:34:08;;;;;;;9.90;5.03;;;;;;;;;;6261412;22;20034;-91
2022/04/19 15:36:41;;;;;;;8.90;4.70;;;;;;;;;;6259195;22;20022;-92
2022/04/19 15:57:47;;;;;;;8.25;4.85;;;;;;;;;;6280881;22;20121;-94
2022/04/19 16:00:35;;;;;;;9.63;4.80;;;;;;;;;;6255271;22;20010;-91
2022/04/19 16:03:07;;;;;;;7.95;5.10;;;;;;;;;;6255907;22;20010;-92
2022/04/19 16:05:40;;;;;;;8.10;5.23;;;;;;;;;;6252724;22;20027;-91
2022/04/19 16:08:10;;;;;;;6.63;4.63;;;;;;;;;;6252526;22;20006;-93
2022/04/19 16:10:42;;;;;;;7.20;4.63;;;;;;;;;;6251660;22;20090;-93
2022/04/19 16:13:18;;;;;;;7.32;4.63;;;;;;;;;;6252597;22;20004;-93
2022/04/19 16:15:47;;;;;;;8.80;5.07;;;;;;;;;;6254607;22;20003;-94
2022/04/19 16:24:15;;;;;;;7.63;5.18;;;;;;;;;;6282681;22;20406;-92
2022/04/19 16:26:42;;;;;;;7.75;5.38;;;;;;;;;;6252687;22;20027;-93
2022/04/19 16:29:11;;;;;;;9.45;5.47;;;;;;;;;;6267564;22;20049;-91
2022/04/19 16:32:07;;;;;;;8.15;5.13;;;;;;;;;;6257859;22;20011;-93
2022/04/19 16:34:36;;;;;;;10.85;6.05;;;;;;;;;;6134445;23;20009;-94
2022/04/19 16:37:08;;;;;;;8.60;6.00;;;;;;;;;;6133504;23;20016;-93
2022/04/19 16:40:10;;;;;;;8.02;5.50;;;;;;;;;;6209910;22;20061;-92
2022/04/19 16:42:42;;;;;;;8.95;5.78;;;;;;;;;;6253088;22;20004;-95
2022/04/19 16:45:11;;;;;;;8.82;5.43;;;;;;;;;;6255209;22;20086;-93
2022/04/19 16:47:50;;;;;;;9.88;5.43;;;;;;;;;;6261119;22;20000;-93
2022/04/19 16:50:19;;;;;;;9.57;5.30;;;;;;;;;;6279254;22;20012;-93
2022/04/19 16:52:49;;;;;;;11.13;5.20;;;;;;;;;;6289139;22;20087;-93
2022/04/19 16:55:30;;;;;;;8.48;5.60;;;;;;;;;;6270551;22;19992;-92
2022/04/19 16:58:18;;;;;;;11.15;6.05;;;;;;;;;;6246999;23;20007;-94
2022/04/19 17:06:53;;;;;;;11.20;5.88;;;;;;;;;;6284854;22;20030;-91
2022/04/19 17:15:35;;;;;;;8.93;6.30;;;;;;;;;;6312073;22;20067;-90
2022/04/19 17:20:37;;;;;;;8.93;5.65;;;;;;;;;;6296832;22;20059;-88
2022/04/19 17:23:04;;;;;;;10.82;6.40;;;;;;;;;;6274946;22;20417;-90
2022/04/19 17:25:36;;;;;;;11.70;5.88;;;;;;;;;;6264660;22;20007;-92
2022/04/19 17:28:08;;;;;;;11.48;6.22;;;;;;;;;;6273630;22;20056;-91
2022/04/19 17:30:44;;;;;;;9.55;6.38;;;;;;;;;;6269538;22;20014;-90
2022/04/19 17:33:17;;;;;;;12.98;6.50;;;;;;;;;;6260889;22;20031;-90
2022/04/19 17:35:43;;;;;;;10.77;6.28;;;;;;;;;;6257950;22;20320;-91
2022/04/19 17:38:16;;;;;;;11.52;6.20;;;;;;;;;;6257579;22;20016;-89
2022/04/19 17:44:20;;;;;;;15.43;7.28;;;;;;;;;;6280297;22;20025;-92
2022/04/19 17:47:07;;;;;;;12.57;7.32;;;;;;;;;;6251398;22;20010;-92
2022/04/19 17:49:33;;;;;;;12.02;7.53;;;;;;;;;;6251940;22;20010;-90
2022/04/19 17:57:51;;;;;;;17.05;9.73;;;;;;;;;;6277897;22;20073;-91
2022/04/19 18:29:09;;;;;;;17.95;9.15;;;;;;;;;;6283069;22;20073;-96
2022/04/19 18:54:01;;;;;;;13.43;9.00;;;;;;;;;;6257109;22;20022;-91
2022/04/19 18:56:31;;;;;;;13.23;9.05;;;;;;;;;;6265463;22;20055;-93
2022/04/19 18:58:57;;;;;;;14.75;9.02;;;;;;;;;;6254280;22;20012;-91
2022/04/19 19:01:23;;;;;;;12.90;8.43;;;;;;;;;;6257809;22;20084;-89
2022/04/19 19:04:02;;;;;;;10.88;7.70;;;;;;;;;;6255969;22;20490;-89
2022/04/19 19:06:29;;;;;;;11.27;7.25;;;;;;;;;;6287798;22;20004;-87
2022/04/19 19:12:08;;;;;;;15.45;7.50;;;;;;;;;;6268405;22;20047;-96
2022/04/19 19:18:02;;;;;;;13.63;7.28;;;;;;;;;;6290572;22;20035;-94
2022/04/19 19:20:38;;;;;;;18.13;8.07;;;;;;;;;;6229418;23;20032;-91
2022/04/19 19:26:08;;;;;;;12.32;7.38;;;;;;;;;;6158800;23;20393;-90
2022/04/19 19:31:41;;;;;;;9.02;6.50;;;;;;;;;;6161610;23;20066;-92
2022/04/19 19:34:11;;;;;;;11.80;8.02;;;;;;;;;;6134730;23;20009;-90
2022/04/19 19:36:37;;;;;;;12.63;7.85;;;;;;;;;;6134672;23;20005;-90
2022/04/19 19:39:07;;;;;;;11.68;8.10;;;;;;;;;;6133278;23;20013;-89
2022/04/19 19:41:33;;;;;;;12.75;8.43;;;;;;;;;;6133539;23;20009;-88
2022/04/19 19:43:59;;;;;;;13.13;8.07;;;;;;;;;;6133627;23;20493;-88
2022/04/19 19:46:34;;;;;;;13.30;8.88;;;;;;;;;;6138679;23;20089;-89
2022/04/19 19:49:00;;;;;;;14.00;8.48;;;;;;;;;;6134969;23;20052;-90
2022/04/19 19:51:29;;;;;;;15.07;9.63;;;;;;;;;;6132393;23;20005;-89
2022/04/19 19:54:11;;;;;;;15.15;9.80;;;;;;;;;;6133744;23;20448;-91
2022/04/19 19:56:42;;;;;;;14.13;9.20;;;;;;;;;;6158083;23;20014;-89
2022/04/19 19:59:08;;;;;;;18.15;10.32;;;;;;;;;;6131920;23;20109;-88
2022/04/19 20:01:41;;;;;;;20.95;11.57;;;;;;;;;;6133604;23;20012;-94
2022/04/19 20:04:07;;;;;;;34.35;14.90;;;;;;;;;;6132965;23;20018;-90
2022/04/19 20:13:06;;;;;;;23.58;12.90;;;;;;;;;;6251567;23;20004;-89
2022/04/19 20:15:33;;;;;;;20.50;10.77;;;;;;;;;;6225009;23;20054;-90
2022/04/19 20:18:02;;;;;;;17.55;10.48;;;;;;;;;;6225158;23;20012;-96
2022/04/19 20:20:29;;;;;;;16.08;10.23;;;;;;;;;;6225137;22;20024;-90
2022/04/19 20:22:58;;;;;;;15.35;9.88;;;;;;;;;;6253820;22;20026;-90
2022/04/19 20:25:24;;;;;;;15.80;10.25;;;;;;;;;;6261261;22;20011;-90
2022/04/19 20:27:56;;;;;;;16.35;9.98;;;;;;;;;;6265819;22;19995;-93
2022/04/19 20:30:22;;;;;;;17.65;9.80;;;;;;;;;;6256353;22;20071;-91
2022/04/19 20:32:55;;;;;;;21.88;11.02;;;;;;;;;;6256762;22;20004;-96
2022/04/19 20:35:30;;;;;;;19.65;11.50;;;;;;;;;;6252889;22;20004;-91
2022/04/19 20:37:56;;;;;;;19.85;11.18;;;;;;;;;;6283256;22;20008;-90
2022/04/19 20:40:32;;;;;;;16.90;10.98;;;;;;;;;;6256101;22;20008;-94
2022/04/19 20:42:59;;;;;;;19.58;10.55;;;;;;;;;;6253380;22;20015;-91
2022/04/19 20:45:31;;;;;;;15.73;10.10;;;;;;;;;;6257588;22;20082;-93
2022/04/19 21:01:44;;;;;;;38.85;10.25;;;;;;;;;;6255250;23;20503;-95
2022/04/19 21:14:03;;;;;;;42.08;8.00;;;;;;;;;;6282334;22;20033;-95
2022/04/19 21:16:42;;;;;;;15.77;7.78;;;;;;;;;;6253426;22;20030;-96
2022/04/19 21:19:11;;;;;;;11.35;7.53;;;;;;;;;;6254573;22;20019;-92
2022/04/19 21:21:58;;;;;;;19.98;8.35;;;;;;;;;;6255133;22;20328;-93
2022/04/19 21:24:25;;;;;;;13.85;9.13;;;;;;;;;;6254608;22;20018;-92
2022/04/19 21:27:03;;;;;;;22.50;9.18;;;;;;;;;;6250610;22;20000;-95
2022/04/19 21:29:30;;;;;;;16.45;9.23;;;;;;;;;;6252398;22;20011;-92
2022/04/19 21:31:59;;;;;;;14.73;8.88;;;;;;;;;;6255303;22;20023;-90
2022/04/19 21:34:31;;;;;;;17.48;10.40;;;;;;;;;;6254038;22;20012;-96
2022/04/19 21:37:06;;;;;;;40.70;12.13;;;;;;;;;;6261369;22;20008;-96
2022/04/19 21:39:38;;;;;;;38.42;12.93;;;;;;;;;;6259456;22;20015;-96
2022/04/19 21:42:11;;;;;;;35.65;12.85;;;;;;;;;;6255063;22;20007;-89
2022/04/19 21:44:38;;;;;;;26.33;12.18;;;;;;;;;;6253010;22;20003;-90
2022/04/19 21:47:04;;;;;;;37.33;11.88;;;;;;;;;;6251638;22;20026;-90
2022/04/19 21:50:06;;;;;;;57.80;12.55;;;;;;;;;;6256260;22;20051;-96
2022/04/19 21:52:39;;;;;;;19.20;8.90;;;;;;;;;;6162905;23;20012;-96
2022/04/19 21:58:15;;;;;;;19.42;9.95;;;;;;;;;;6150000;23;20087;-96
2022/04/19 22:01:00;;;;;;;16.80;8.40;;;;;;;;;;6135740;23;20006;-95
2022/04/19 22:03:34;;;;;;;20.75;8.05;;;;;;;;;;6144653;23;20045;-91
2022/04/19 22:06:00;;;;;;;;;;;;;;;;;;6136226;23;20009;-95
2022/04/19 22:08:26;;;;;;;20.25;8.63;;;;;;;;;;6157088;23;19947;-91
2022/04/19 22:11:13;;;;;;;16.60;8.30;;;;;;;;;;6135052;23;20020;-95
2022/04/19 22:20:16;;;;;;;17.90;7.90;;;;;;;;;;6279209;22;20057;-96
2022/04/19 22:22:42;;;;;;;16.13;7.85;;;;;;;;;;6258554;22;20324;-91
2022/04/19 22:25:11;;;;;;;23.15;9.60;;;;;;;;;;6255197;22;20230;-92
2022/04/19 22:27:40;;;;;;;17.88;9.07;;;;;;;;;;6254557;22;20301;-92
2022/04/19 22:30:10;;;;;;;17.40;8.55;;;;;;;;;;6257986;22;20010;-92
2022/04/19 22:32:36;;;;;;;21.38;9.75;;;;;;;;;;6258313;22;20030;-95
2022/04/19 22:35:05;;;;;;;17.95;9.27;;;;;;;;;;6253320;22;20053;-92
2022/04/19 22:37:37;;;;;;;18.70;9.35;;;;;;;;;;6257539;22;20016;-96
2022/04/19 22:40:10;;;;;;;20.42;9.10;;;;;;;;;;6256053;22;20006;-95
2022/04/19 22:42:36;;;;;;;16.02;8.70;;;;;;;;;;6255678;22;20004;-92
2022/04/19 22:45:02;;;;;;;18.48;10.05;;;;;;;;;;6256745;22;20004;-91
2022/04/19 22:47:31;;;;;;;17.48;10.27;;;;;;;;;;6257308;22;20016;-92
2022/04/19 22:49:57;;;;;;;19.35;9.13;;;;;;;;;;6258241;22;20023;-92
2022/04/19 22:52:23;;;;;;;17.08;9.65;;;;;;;;;;6258958;22;20004;-92
2022/04/19 22:54:49;;;;;;;19.55;9.82;;;;;;;;;;6256702;22;20011;-90
2022/04/19 22:57:16;;;;;;;18.58;8.40;;;;;;;;;;6255166;22;20053;-92
2022/04/19 22:59:45;;;;;;;16.70;9.10;;;;;;;;;;6255160;22;20008;-90
2022/04/19 23:02:11;;;;;;;17.92;9.00;;;;;;;;;;6257513;22;20008;-91
2022/04/19 23:04:38;;;;;;;15.70;8.68;;;;;;;;;;6257687;22;20011;-91
2022/04/19 23:07:04;;;;;;;16.80;9.25;;;;;;;;;;6254428;22;20055;-91
2022/04/19 23:09:30;;;;;;;16.08;8.95;;;;;;;;;;6256996;22;20003;-91
2022/04/19 23:12:00;;;;;;;17.88;9.70;;;;;;;;;;6256356;22;20004;-95
2022/04/19 23:14:26;;;;;;;16.42;9.13;;;;;;;;;;6255663;22;19999;-90
2022/04/19 23:16:58;;;;;;;20.50;8.88;;;;;;;;;;6253926;22;20008;-91
2022/04/19 23:19:24;;;;;;;17.35;9.50;;;;;;;;;;6254533;22;20026;-92
2022/04/19 23:21:57;;;;;;;16.77;9.07;;;;;;;;;;6256539;22;20354;-93
2022/04/19 23:24:35;;;;;;;14.10;7.78;;;;;;;;;;6257743;22;20003;-95
2022/04/19 23:30:28;;;;;;;12.18;7.85;;;;;;;;;;6285753;22;20010;-94
2022/04/19 23:32:54;;;;;;;16.63;9.30;;;;;;;;;;6254333;22;20010;-91
2022/04/19 23:35:21;;;;;;;17.48;9.48;;;;;;;;;;6257660;22;20011;-90
2022/04/19 23:37:47;;;;;;;18.63;9.10;;;;;;;;;;6256473;22;20035;-91
2022/04/19 23:40:14;;;;;;;17.42;9.45;;;;;;;;;;6268961;22;19996;-91
2022/04/19 23:42:40;;;;;;;18.52;9.40;;;;;;;;;;6253246;22;20003;-89
2022/04/19 23:45:06;;;;;;;17.60;9.32;;;;;;;;;;6252496;22;20006;-91
2022/04/19 23:47:33;;;;;;;20.05;10.82;;;;;;;;;;6255330;22;20321;-91
2022/04/19 23:49:59;;;;;;;20.70;10.60;;;;;;;;;;6254867;22;19999;-90
2022/04/19 23:52:25;;;;;;;16.85;9.20;;;;;;;;;;6255186;22;20030;-91
2022/04/19 23:58:08;;;;;;;19.93;9.07;;;;;;;;;;6279417;22;20518;-95
